createdAt,value
2018-07-10T00:23:13.516Z,21.60
2018-07-10T00:26:08.653Z,21.50
2018-07-10T00:42:13.017Z,21.30
2018-07-10T00:45:02.691Z,21.30
2018-07-10T00:50:52.892Z,21.30
2018-07-10T00:53:28.887Z,21.30
2018-07-10T01:28:40.847Z,20.70
2018-07-10T01:31:23.025Z,20.70
2018-07-10T01:34:05.643Z,20.60
2018-07-10T01:37:04.998Z,20.50
2018-07-10T12:02:54.830Z,17.00
2018-07-10T14:50:49.464Z,21.30
2018-07-10T14:53:38.508Z,21.10
2018-07-10T14:56:20.769Z,21.10
2018-07-10T14:59:14.689Z,21.20
2018-07-10T15:12:36.398Z,22.80
2018-07-10T15:18:43.157Z,22.50
2018-07-10T15:21:18.777Z,22.10
2018-07-10T15:24:49.294Z,22.20
2018-07-10T15:27:22.675Z,22.30
2018-07-10T15:29:56.583Z,22.70
2018-07-10T15:35:31.577Z,24.40
2018-07-10T15:38:07.956Z,24.40
2018-07-10T15:41:05.257Z,24.50
2018-07-10T15:43:37.543Z,24.90
2018-07-10T15:46:10.097Z,24.20
2018-07-10T15:48:43.813Z,23.50
2018-07-10T15:51:16.672Z,23.00
2018-07-10T15:56:39.109Z,22.60
2018-07-10T15:59:17.000Z,23.00
2018-07-10T16:01:50.089Z,23.80
2018-07-10T16:04:33.481Z,24.10
2018-07-10T16:07:08.333Z,23.90
2018-07-10T16:09:51.422Z,23.80
2018-07-10T16:12:25.305Z,23.70
2018-07-10T16:15:02.172Z,23.90
2018-07-10T16:17:35.850Z,23.60
2018-07-10T16:20:12.522Z,23.50
2018-07-10T16:22:47.271Z,23.80
2018-07-10T16:25:36.897Z,23.80
2018-07-10T16:28:25.286Z,23.90
2018-07-10T16:30:59.493Z,24.00
2018-07-10T16:33:36.031Z,24.00
2018-07-10T16:36:12.489Z,23.80
2018-07-10T16:38:47.349Z,23.90
2018-07-10T16:47:05.728Z,22.80
2018-07-10T16:49:49.483Z,22.70
2018-07-10T16:52:27.781Z,23.10
2018-07-10T16:55:03.293Z,24.10
2018-07-10T16:57:37.054Z,24.80
2018-07-10T17:00:23.248Z,25.10
2018-07-10T17:03:07.250Z,24.50
2018-07-10T17:05:39.625Z,24.90
2018-07-10T17:08:15.142Z,25.40
2018-07-10T17:10:54.556Z,26.10
2018-07-10T17:16:25.029Z,27.60
2018-07-10T17:19:00.969Z,28.20
2018-07-10T17:21:34.640Z,27.20
2018-07-10T17:24:07.392Z,27.10
2018-07-10T17:26:43.952Z,27.10
2018-07-10T17:29:18.370Z,27.20
2018-07-10T17:31:54.214Z,27.90
2018-07-10T17:37:14.515Z,28.60
2018-07-10T17:39:48.013Z,28.80
2018-07-10T17:42:20.580Z,28.00
2018-07-10T17:44:53.344Z,27.70
2018-07-10T17:47:27.035Z,27.20
2018-07-10T17:50:01.120Z,27.50
2018-07-10T17:52:33.815Z,27.70
2018-07-10T17:55:06.639Z,27.70
2018-07-10T17:57:42.761Z,27.80
2018-07-10T18:00:19.621Z,28.20
2018-07-10T18:02:52.047Z,28.30
2018-07-10T18:05:25.328Z,28.50
2018-07-10T18:07:58.417Z,28.60
2018-07-10T18:10:34.273Z,28.90
2018-07-10T18:13:07.331Z,28.80
2018-07-10T18:15:46.065Z,28.60
2018-07-10T18:18:20.983Z,28.20
2018-07-10T18:20:57.232Z,27.90
2018-07-10T18:23:32.618Z,28.10
2018-07-10T18:26:05.210Z,28.30
2018-07-10T18:28:42.005Z,28.60
2018-07-10T18:31:28.142Z,28.40
2018-07-10T18:36:41.621Z,28.80
2018-07-10T18:39:14.571Z,28.40
2018-07-10T18:41:48.354Z,28.10
2018-07-10T18:44:20.805Z,28.30
2018-07-10T18:46:56.720Z,28.30
2018-07-10T18:49:30.071Z,28.40
2018-07-10T18:52:03.544Z,28.20
2018-07-10T18:54:39.923Z,28.20
2018-07-10T18:57:38.770Z,28.60
2018-07-10T19:00:12.068Z,28.70
2018-07-10T19:02:54.601Z,28.70
2018-07-10T19:05:27.381Z,28.80
2018-07-10T19:08:01.226Z,29.40
2018-07-10T19:10:35.165Z,29.50
2018-07-10T19:13:13.025Z,29.40
2018-07-10T19:15:45.865Z,30.10
2018-07-10T19:18:37.611Z,29.90
2018-07-10T19:21:28.962Z,29.80
2018-07-10T19:24:08.452Z,29.80
2018-07-10T19:26:43.204Z,30.10
2018-07-10T19:29:28.710Z,29.00
2018-07-10T19:32:10.616Z,29.00
2018-07-10T19:34:45.232Z,28.90
2018-07-10T19:37:20.920Z,29.20
2018-07-10T19:39:59.331Z,29.60
2018-07-10T19:42:34.392Z,29.80
2018-07-10T19:45:20.174Z,29.70
2018-07-10T19:47:53.258Z,29.90
2018-07-10T19:50:33.174Z,29.80
2018-07-10T19:55:55.939Z,29.80
2018-07-10T19:58:35.317Z,29.80
2018-07-10T20:02:14.481Z,29.50
2018-07-10T20:04:57.745Z,29.20
2018-07-10T20:11:15.399Z,28.30
2018-07-10T20:13:55.430Z,28.50
2018-07-10T20:17:01.869Z,27.90
2018-07-10T20:20:50.328Z,27.70
2018-07-10T20:24:36.801Z,28.50
2018-07-10T20:28:25.131Z,29.30
2018-07-10T20:31:09.841Z,29.50
2018-07-10T20:33:58.052Z,28.20
2018-07-10T20:36:34.626Z,27.50
2018-07-10T20:39:11.899Z,28.00
2018-07-10T20:41:51.004Z,28.90
2018-07-10T20:44:24.641Z,29.90
2018-07-10T20:47:06.019Z,30.40
2018-07-10T20:50:19.468Z,29.80
2018-07-10T20:53:07.040Z,29.90
2018-07-10T20:56:06.835Z,30.10
2018-07-10T20:58:49.021Z,30.00
2018-07-10T21:01:31.488Z,29.90
2018-07-10T21:04:09.524Z,29.70
2018-07-10T21:06:52.527Z,29.30
2018-07-10T21:09:40.333Z,28.70
2018-07-10T21:12:23.146Z,28.90
2018-07-10T21:15:12.302Z,28.80
2018-07-10T21:20:01.796Z,29.10
2018-07-10T21:24:48.584Z,29.40
2018-07-10T21:29:37.064Z,29.60
2018-07-10T21:32:17.267Z,29.20
2018-07-10T21:38:57.798Z,27.60
2018-07-10T21:48:48.233Z,28.30
2018-07-10T21:51:23.567Z,28.40
2018-07-10T21:53:56.453Z,28.60
2018-07-10T21:56:28.917Z,28.50
2018-07-10T21:59:03.168Z,28.00
2018-07-10T22:14:50.809Z,27.70
2018-07-10T22:17:24.547Z,27.70
2018-07-10T22:20:02.103Z,27.90
2018-07-10T22:22:35.685Z,27.20
2018-07-10T22:25:11.477Z,26.40
2018-07-10T22:27:46.942Z,25.70
2018-07-10T22:30:34.351Z,25.00
2018-07-10T22:33:09.282Z,24.50
2018-07-10T22:35:42.815Z,24.40
2018-07-10T22:38:15.522Z,24.50
2018-07-10T22:40:55.747Z,25.10
2018-07-10T22:43:30.638Z,25.30
2018-07-10T22:46:03.099Z,25.10
2018-07-10T22:48:40.216Z,24.70
2018-07-10T22:51:20.854Z,24.70
2018-07-10T22:53:54.840Z,24.70
2018-07-10T22:56:27.757Z,24.60
2018-07-10T22:59:01.373Z,24.60
2018-07-10T23:01:41.978Z,24.50
2018-07-10T23:04:18.091Z,24.40
2018-07-10T23:06:51.353Z,24.40
2018-07-10T23:12:18.209Z,24.20
2018-07-10T23:14:52.012Z,24.00
2018-07-10T23:20:29.648Z,23.60
2018-07-10T23:23:04.565Z,23.20
2018-07-10T23:25:36.887Z,23.00
2018-07-10T23:30:58.447Z,22.30
2018-07-10T23:33:33.671Z,22.10
2018-07-10T23:42:14.498Z,21.90
2018-07-10T23:44:49.872Z,21.80
2018-07-10T23:47:35.533Z,21.80
2018-07-10T23:50:18.184Z,21.80
2018-07-10T23:53:55.016Z,21.70
2018-07-10T23:56:27.489Z,21.60
2018-07-10T23:59:03.476Z,21.60
